Time;durP1;ratioP1;P1;durP2;ratioP2;P2;SDS_P1;SDS_P2;PMS_P1;PMS_P2;Temp;Humidity;BMP_temperature;BMP_pressure;BME280_temperature;BME280_humidity;BME280_pressure;Samples;Min_cycle;Max_cycle;Signal;HPM_P1;HPM_P2
2023/03/05 00:01:29;;;;;;;47.63;29.53;;;;;;;5.89;100.00;92330.19;5068983;28;20232;-88
2023/03/05 00:03:55;;;;;;;46.87;29.77;;;;;;;6.06;100.00;92346.28;5067221;28;20186;-87
2023/03/05 00:06:24;;;;;;;44.13;28.40;;;;;;;6.14;100.00;92343.19;5068454;28;20225;-87
2023/03/05 00:08:52;;;;;;;47.57;29.23;;;;;;;6.00;100.00;92334.34;5069510;28;20173;-88
2023/03/05 00:11:18;;;;;;;45.43;29.13;;;;;;;6.00;100.00;92342.91;5069415;28;20217;-87
2023/03/05 00:13:43;;;;;;;48.67;28.83;;;;;;;6.02;100.00;92333.06;5070173;28;20178;-87
2023/03/05 00:16:11;;;;;;;48.27;27.37;;;;;;;6.05;100.00;92326.59;5069844;28;20240;-85
2023/03/05 00:18:37;;;;;;;43.33;27.67;;;;;;;5.97;100.00;92301.97;5070375;28;20185;-88
2023/03/05 00:21:04;;;;;;;46.23;27.10;;;;;;;6.04;100.00;92323.22;5068727;28;20251;-90
2023/03/05 00:23:29;;;;;;;39.13;28.07;;;;;;;5.86;100.00;92269.31;5070016;28;20222;-86
2023/03/05 00:25:55;;;;;;;40.80;28.17;;;;;;;6.09;100.00;92325.03;5068643;28;20237;-86
2023/03/05 00:28:20;;;;;;;44.77;27.87;;;;;;;5.97;100.00;92311.56;5070282;28;20182;-88
2023/03/05 00:30:45;;;;;;;40.47;29.17;;;;;;;6.07;100.00;92324.53;5069284;28;20229;-87
2023/03/05 00:33:12;;;;;;;43.00;27.83;;;;;;;6.09;100.00;92314.66;5068013;28;20182;-88
2023/03/05 00:35:42;;;;;;;37.30;26.87;;;;;;;6.07;100.00;92316.75;5070044;28;20252;-88
2023/03/05 00:38:07;;;;;;;42.70;26.23;;;;;;;5.93;100.00;92306.09;5072804;28;20185;-88
2023/03/05 00:40:37;;;;;;;37.43;25.97;;;;;;;5.98;100.00;92293.16;5071761;28;20283;-88
2023/03/05 00:43:03;;;;;;;40.03;25.93;;;;;;;6.12;100.00;92308.97;5073112;28;20173;-88
2023/03/05 00:45:28;;;;;;;36.17;24.73;;;;;;;5.69;100.00;92252.44;5077150;28;20221;-82
2023/03/05 00:47:54;;;;;;;35.83;26.07;;;;;;;6.08;100.00;92292.41;5078155;28;20177;-86
2023/03/05 00:50:19;;;;;;;32.57;22.93;;;;;;;5.95;100.00;92279.94;5077659;28;20288;-87
2023/03/05 00:52:44;;;;;;;40.27;25.83;;;;;;;5.96;100.00;92290.03;5078124;28;20241;-86
2023/03/05 00:55:10;;;;;;;36.47;24.63;;;;;;;5.99;100.00;92299.88;5077394;28;20225;-87
2023/03/05 00:57:35;;;;;;;38.07;24.50;;;;;;;5.57;100.00;92239.72;5074040;28;20193;-88
2023/03/05 01:00:01;;;;;;;30.77;23.70;;;;;;;5.75;100.00;92278.09;5072291;28;20197;-87
2023/03/05 01:02:26;;;;;;;39.87;24.10;;;;;;;5.84;100.00;92283.56;5071900;28;20190;-89
2023/03/05 01:04:51;;;;;;;37.47;23.83;;;;;;;5.88;100.00;92287.19;5071518;28;20231;-87
2023/03/05 01:07:17;;;;;;;32.60;24.00;;;;;;;5.87;100.00;92286.41;5072428;28;20189;-88
2023/03/05 01:09:42;;;;;;;35.00;22.90;;;;;;;5.95;100.00;92287.72;5072751;28;20181;-88
2023/03/05 01:12:07;;;;;;;39.17;23.67;;;;;;;5.79;100.00;92257.63;5072364;28;20871;-82
2023/03/05 01:14:34;;;;;;;38.10;22.17;;;;;;;6.14;100.00;92279.19;5072686;28;20223;-87
2023/03/05 01:17:00;;;;;;;33.57;23.30;;;;;;;6.10;100.00;92282.56;5071621;28;20221;-88
2023/03/05 01:19:25;;;;;;;30.67;21.83;;;;;;;5.85;100.00;92283.28;5072446;28;20252;-87
2023/03/05 01:21:50;;;;;;;29.50;21.07;;;;;;;5.67;100.00;92265.63;5071422;28;20271;-89
2023/03/05 01:24:16;;;;;;;40.57;24.53;;;;;;;5.38;100.00;92220.56;5072074;28;20190;-88
2023/03/05 01:26:41;;;;;;;27.83;21.70;;;;;;;5.60;100.00;92254.78;5071412;28;20229;-87
2023/03/05 01:29:07;;;;;;;32.73;21.83;;;;;;;5.84;100.00;92273.19;5072385;28;20193;-87
2023/03/05 01:31:32;;;;;;;31.07;25.27;;;;;;;5.80;100.00;92269.53;5070262;28;20229;-87
2023/03/05 01:33:59;;;;;;;34.77;23.60;;;;;;;5.67;100.00;92238.97;5067445;28;20181;-88
2023/03/05 01:36:24;;;;;;;28.80;22.43;;;;;;;5.88;100.00;92266.47;5070897;28;20235;-82
2023/03/05 01:38:50;;;;;;;31.13;22.67;;;;;;;5.49;100.00;92270.53;5071399;28;20181;-85
2023/03/05 01:41:16;;;;;;;31.13;22.70;;;;;;;5.41;100.00;92255.50;5071304;28;20770;-88
2023/03/05 01:43:43;;;;;;;29.13;20.07;;;;;;;5.34;100.00;92247.97;5070730;28;20236;-87
2023/03/05 01:46:12;;;;;;;29.20;21.10;;;;;;;5.50;100.00;92259.13;5070396;28;20288;-88
2023/03/05 01:48:39;;;;;;;32.23;21.07;;;;;;;5.56;100.00;92263.28;5071955;28;20177;-85
2023/03/05 01:51:06;;;;;;;31.70;22.93;;;;;;;5.67;100.00;92270.03;5064102;28;20229;-87
2023/03/05 01:53:31;;;;;;;31.13;22.37;;;;;;;5.63;100.00;92266.41;5060260;28;20178;-88
2023/03/05 01:55:57;;;;;;;27.97;20.93;;;;;;;5.35;100.00;92244.38;5055384;28;20234;-88
2023/03/05 01:58:24;;;;;;;30.57;22.23;;;;;;;5.51;100.00;92258.13;5051366;28;20205;-87
2023/03/05 02:00:52;;;;;;;34.30;21.20;;;;;;;5.67;100.00;92267.44;5050526;28;20286;-88
2023/03/05 02:03:19;;;;;;;30.13;21.23;;;;;;;5.60;100.00;92261.75;5050333;28;20178;-89
2023/03/05 02:05:44;;;;;;;29.23;22.33;;;;;;;5.50;100.00;92257.31;5058534;28;20232;-88
2023/03/05 02:08:16;;;;;;;31.60;22.33;;;;;;;5.50;100.00;92244.38;5070040;28;20215;-88
2023/03/05 02:10:44;;;;;;;30.60;21.03;;;;;;;5.59;100.00;92262.75;5071002;28;20217;-88
2023/03/05 02:13:13;;;;;;;34.10;23.17;;;;;;;5.47;100.00;92259.66;5071162;28;20458;-88
2023/03/05 02:15:39;;;;;;;35.37;22.60;;;;;;;5.41;100.00;92255.50;5070541;28;20237;-82
2023/03/05 02:18:06;;;;;;;31.57;21.80;;;;;;;5.66;100.00;92268.50;5070336;28;20241;-87
2023/03/05 02:20:57;;;;;;;29.63;20.93;;;;;;;5.50;100.00;92265.09;5069949;28;20241;-88
2023/03/05 02:23:26;;;;;;;35.83;23.40;;;;;;;5.32;100.00;92263.00;5070320;28;20554;-88
2023/03/05 02:25:52;;;;;;;31.47;21.77;;;;;;;5.40;100.00;92262.47;5069610;28;20214;-87
2023/03/05 02:28:30;;;;;;;34.33;22.00;;;;;;;5.68;100.00;92269.00;5070839;28;20235;-87
2023/03/05 02:30:56;;;;;;;35.27;21.53;;;;;;;5.57;100.00;92265.59;5059411;28;20313;-86
2023/03/05 02:33:22;;;;;;;26.43;20.23;;;;;;;5.61;100.00;92247.75;5050513;28;20178;-88
2023/03/05 02:35:47;;;;;;;28.03;21.00;;;;;;;5.62;100.00;92262.28;5050153;28;20246;-89
2023/03/05 02:38:15;;;;;;;28.47;20.93;;;;;;;5.58;97.36;92272.38;5049991;28;20182;-88
2023/03/05 02:40:41;;;;;;;30.70;20.70;;;;;;;5.63;99.77;92269.00;5050774;28;20317;-87
2023/03/05 02:43:06;;;;;;;27.80;20.40;;;;;;;5.58;99.99;92262.00;5050120;28;20202;-87
2023/03/05 02:45:32;;;;;;;24.93;20.47;;;;;;;5.53;99.53;92279.31;5049337;28;20290;-85
2023/03/05 02:47:57;;;;;;;25.53;19.37;;;;;;;5.47;97.33;92275.16;5050377;28;20184;-87
2023/03/05 02:50:24;;;;;;;24.80;19.33;;;;;;;5.24;95.76;92273.03;5054982;28;20318;-85
2023/03/05 02:52:49;;;;;;;28.10;18.17;;;;;;;5.19;96.58;92237.59;5070131;28;20184;-88
2023/03/05 02:55:15;;;;;;;31.27;20.60;;;;;;;5.33;96.67;92284.44;5070148;28;20229;-87
2023/03/05 02:57:40;;;;;;;26.53;19.30;;;;;;;5.46;97.26;92278.81;5070062;28;20200;-88
2023/03/05 03:00:07;;;;;;;25.27;19.03;;;;;;;5.63;97.84;92279.34;5069664;28;20196;-83
2023/03/05 03:02:32;;;;;;;27.03;19.43;;;;;;;5.30;97.43;92264.25;5069830;28;20269;-86
2023/03/05 03:04:58;;;;;;;27.97;19.87;;;;;;;5.36;96.97;92269.19;5070231;28;20228;-86
2023/03/05 03:07:23;;;;;;;30.53;20.23;;;;;;;5.53;96.93;92274.16;5069024;28;20249;-87
2023/03/05 03:09:48;;;;;;;24.57;19.37;;;;;;;5.51;97.33;92251.09;5070152;28;20186;-83
2023/03/05 03:12:14;;;;;;;25.27;18.80;;;;;;;5.53;96.83;92258.63;5069742;28;20186;-87
2023/03/05 03:14:41;;;;;;;26.50;19.30;;;;;;;5.42;96.89;92269.97;5069530;28;20188;-87
2023/03/05 03:17:24;;;;;;;30.77;18.67;;;;;;;5.17;97.40;92269.94;5067289;28;20931;-88
2023/03/05 03:19:50;;;;;;;23.97;18.10;;;;;;;5.41;98.38;92265.84;5069467;28;20193;-86
2023/03/05 03:22:15;;;;;;;27.80;19.43;;;;;;;5.47;96.94;92273.38;5069436;28;20190;-80
2023/03/05 03:24:42;;;;;;;24.27;19.37;;;;;;;5.13;98.49;92274.03;5069864;28;20192;-89
2023/03/05 03:27:08;;;;;;;33.33;21.37;;;;;;;5.19;98.60;92278.19;5068440;28;20208;-84
2023/03/05 03:29:36;;;;;;;27.63;20.30;;;;;;;4.93;98.35;92285.84;5069627;28;20196;-85
2023/03/05 03:32:02;;;;;;;24.97;20.17;;;;;;;5.08;98.87;92284.34;5068867;28;20243;-88
2023/03/05 03:34:27;;;;;;;25.50;20.03;;;;;;;4.88;98.63;92282.47;5068965;28;20186;-88
2023/03/05 03:36:53;;;;;;;25.73;19.60;;;;;;;4.82;96.76;92267.97;5068593;28;20216;-87
2023/03/05 03:39:19;;;;;;;29.40;20.03;;;;;;;4.88;97.44;92275.50;5069842;28;20219;-88
2023/03/05 03:41:47;;;;;;;26.60;19.70;;;;;;;4.66;97.68;92238.69;5068699;28;20237;-87
2023/03/05 03:44:13;;;;;;;26.53;20.73;;;;;;;4.80;96.55;92275.97;5069235;28;20240;-87
2023/03/05 03:46:39;;;;;;;30.07;20.73;;;;;;;4.83;96.92;92270.31;5068076;28;20221;-87
2023/03/05 03:49:07;;;;;;;25.70;19.77;;;;;;;4.71;95.92;92251.63;5069634;28;20189;-85
2023/03/05 03:51:32;;;;;;;28.53;19.20;;;;;;;4.78;93.89;92275.44;5069127;28;20240;-86
2023/03/05 03:53:58;;;;;;;28.47;20.00;;;;;;;4.80;94.69;92270.81;5069424;28;20193;-85
2023/03/05 03:56:24;;;;;;;26.80;21.40;;;;;;;4.81;95.42;92267.19;5068652;28;20224;-82
2023/03/05 03:58:51;;;;;;;27.07;18.83;;;;;;;5.12;95.60;92277.66;5069641;28;20185;-86
2023/03/05 04:01:17;;;;;;;27.83;21.47;;;;;;;5.08;94.03;92285.16;5068095;28;20241;-85
2023/03/05 04:03:42;;;;;;;26.53;19.67;;;;;;;4.76;93.62;92269.72;5068500;28;20185;-83
2023/03/05 04:06:08;;;;;;;31.87;20.50;;;;;;;4.70;93.90;92265.56;5066477;28;20229;-84
2023/03/05 04:08:33;;;;;;;30.27;20.97;;;;;;;5.04;94.19;92283.31;5068171;28;20200;-80
2023/03/05 04:11:00;;;;;;;25.70;20.07;;;;;;;4.94;93.95;92282.25;5067939;28;20308;-79
2023/03/05 04:13:25;;;;;;;29.67;20.20;;;;;;;5.04;94.01;92294.44;5068529;28;20208;-78
2023/03/05 04:15:51;;;;;;;26.13;19.50;;;;;;;4.81;94.51;92281.91;5068371;28;20284;-78
2023/03/05 04:18:17;;;;;;;25.20;18.97;;;;;;;4.79;96.26;92268.47;5071163;28;20185;-78
2023/03/05 04:20:42;;;;;;;29.30;19.73;;;;;;;4.77;94.62;92281.66;5072666;28;20285;-79
2023/03/05 04:23:08;;;;;;;38.90;21.53;;;;;;;4.80;94.69;92264.84;5073008;28;20215;-79
2023/03/05 04:25:33;;;;;;;29.23;20.83;;;;;;;4.87;94.35;92281.69;5071080;28;20233;-79
2023/03/05 04:27:59;;;;;;;31.77;20.17;;;;;;;4.81;94.28;92277.53;5072772;28;20208;-80
2023/03/05 04:30:24;;;;;;;29.33;21.57;;;;;;;4.82;94.58;92284.25;5072790;28;20221;-79
2023/03/05 04:32:50;;;;;;;28.70;20.67;;;;;;;4.83;95.19;92285.81;5072956;28;20193;-78
2023/03/05 04:35:15;;;;;;;37.83;21.50;;;;;;;4.69;94.50;92274.38;5072158;28;20221;-79
2023/03/05 04:37:40;;;;;;;30.97;20.70;;;;;;;4.75;95.21;92282.91;5072892;28;20198;-79
2023/03/05 04:40:07;;;;;;;32.13;20.37;;;;;;;4.72;96.25;92280.84;5070662;28;20189;-78
2023/03/05 04:42:32;;;;;;;32.13;21.27;;;;;;;4.80;96.66;92275.97;5071975;28;20190;-79
2023/03/05 04:44:57;;;;;;;31.07;21.23;;;;;;;4.67;95.18;92263.50;5072012;28;20240;-78
2023/03/05 04:47:23;;;;;;;32.20;21.83;;;;;;;4.62;94.60;92273.78;5072626;28;20189;-79
2023/03/05 04:49:48;;;;;;;31.33;20.77;;;;;;;4.71;95.39;92267.16;5071769;28;20220;-78
2023/03/05 04:52:14;;;;;;;34.27;21.67;;;;;;;4.75;95.19;92273.38;5072412;28;21031;-79
2023/03/05 04:54:40;;;;;;;29.17;20.33;;;;;;;4.68;94.66;92277.22;5072140;28;20185;-79
2023/03/05 04:57:05;;;;;;;24.90;19.70;;;;;;;4.61;92.94;92267.09;5072072;28;20220;-79
2023/03/05 04:59:31;;;;;;;31.53;18.03;;;;;;;4.52;91.94;92278.94;5072597;28;20919;-80
2023/03/05 05:01:56;;;;;;;28.73;19.50;;;;;;;4.55;89.31;92273.25;5071825;28;20226;-78
2023/03/05 05:04:22;;;;;;;24.70;18.43;;;;;;;4.54;89.07;92263.97;5072265;28;20247;-78
2023/03/05 05:06:47;;;;;;;29.53;19.73;;;;;;;4.45;89.69;92267.25;5070802;28;20217;-78
2023/03/05 05:09:13;;;;;;;27.00;19.07;;;;;;;4.50;88.74;92291.31;5071946;28;20178;-79
2023/03/05 05:11:39;;;;;;;28.80;20.30;;;;;;;4.53;90.11;92277.88;5071760;28;20281;-80
2023/03/05 05:14:04;;;;;;;23.63;18.30;;;;;;;4.57;88.63;92258.28;5071688;28;20190;-78
2023/03/05 05:16:29;;;;;;;22.57;18.17;;;;;;;4.91;87.22;92292.31;5071401;28;20229;-78
2023/03/05 05:18:55;;;;;;;23.00;18.93;;;;;;;4.78;86.96;92290.97;5071626;28;20178;-79
2023/03/05 05:21:20;;;;;;;25.43;18.37;;;;;;;4.67;87.40;92299.69;5071170;28;20251;-79
2023/03/05 05:23:46;;;;;;;25.87;19.23;;;;;;;4.75;87.88;92283.69;5071452;28;20201;-80
2023/03/05 05:26:15;;;;;;;29.70;19.83;;;;;;;4.66;87.68;92298.13;5070003;28;20214;-87
2023/03/05 05:28:42;;;;;;;27.00;20.03;;;;;;;4.73;88.04;92295.34;5069128;28;21006;-89
2023/03/05 05:31:13;;;;;;;27.57;20.60;;;;;;;4.58;87.46;92296.00;5069168;28;20233;-87
2023/03/05 05:33:39;;;;;;;23.90;17.53;;;;;;;4.59;87.05;92286.47;5069444;28;20185;-87
2023/03/05 05:36:06;;;;;;;28.90;20.03;;;;;;;4.40;86.06;92277.56;5070854;28;20275;-88
2023/03/05 05:38:32;;;;;;;23.97;17.63;;;;;;;4.69;86.42;92295.06;5070481;28;20312;-88
2023/03/05 05:41:06;;;;;;;27.07;18.63;;;;;;;4.78;86.03;92308.28;5068346;28;20230;-83
2023/03/05 05:43:31;;;;;;;24.67;17.00;;;;;;;4.62;84.10;92304.81;5069799;28;20190;-85
2023/03/05 05:46:01;;;;;;;25.40;17.37;;;;;;;4.55;83.57;92286.19;5070476;28;20240;-88
2023/03/05 05:48:31;;;;;;;28.53;18.10;;;;;;;4.80;84.37;92295.88;5069167;28;20177;-85
2023/03/05 05:50:57;;;;;;;19.13;15.87;;;;;;;4.65;81.74;92308.72;5069456;28;20267;-86
2023/03/05 05:53:23;;;;;;;21.53;18.47;;;;;;;4.87;82.07;92307.53;5069563;28;20205;-87
2023/03/05 05:55:49;;;;;;;21.83;17.27;;;;;;;5.01;81.68;92291.59;5068275;28;20265;-88
2023/03/05 05:58:14;;;;;;;19.33;17.27;;;;;;;4.87;80.86;92307.53;5070259;28;20213;-86
2023/03/05 06:00:40;;;;;;;22.60;17.40;;;;;;;4.97;82.34;92317.97;5069097;28;20284;-86
2023/03/05 06:03:06;;;;;;;22.23;15.73;;;;;;;4.96;79.11;92315.63;5070211;28;20195;-85
2023/03/05 06:05:32;;;;;;;17.53;15.20;;;;;;;5.00;78.95;92321.06;5070003;28;20240;-85
2023/03/05 06:07:57;;;;;;;19.47;17.30;;;;;;;4.76;78.84;92284.50;5068653;28;20213;-85
2023/03/05 06:10:23;;;;;;;20.77;16.37;;;;;;;5.06;78.62;92297.53;5070338;28;20233;-87
2023/03/05 06:12:48;;;;;;;20.17;16.80;;;;;;;5.39;77.36;92320.44;5071048;28;20190;-84
2023/03/05 06:15:14;;;;;;;18.67;17.00;;;;;;;5.29;78.82;92310.09;5068321;28;20252;-85
2023/03/05 06:17:39;;;;;;;17.83;15.93;;;;;;;4.92;76.62;92294.66;5066638;28;20191;-87
2023/03/05 06:20:05;;;;;;;24.70;16.30;;;;;;;5.16;76.77;92325.28;5068907;28;20191;-85
2023/03/05 06:22:34;;;;;;;19.07;15.97;;;;;;;5.18;77.13;92324.00;5070419;28;20249;-87
2023/03/05 06:25:00;;;;;;;19.80;16.17;;;;;;;5.36;74.76;92326.13;5069342;28;20231;-85
2023/03/05 06:27:25;;;;;;;17.60;14.73;;;;;;;5.32;74.55;92325.09;5069841;28;20197;-85
2023/03/05 06:29:53;;;;;;;19.93;17.33;;;;;;;5.42;75.23;92317.34;5066965;28;20220;-85
2023/03/05 06:32:18;;;;;;;20.47;17.00;;;;;;;5.43;72.82;92326.66;5068652;28;21857;-85
2023/03/05 06:34:44;;;;;;;21.50;15.73;;;;;;;5.30;72.62;92328.94;5069748;28;20181;-79
2023/03/05 06:37:09;;;;;;;19.17;16.30;;;;;;;5.24;72.48;92301.50;5068249;28;20282;-87
2023/03/05 06:39:34;;;;;;;16.70;14.93;;;;;;;5.61;71.12;92328.03;5066689;28;20201;-81
2023/03/05 06:42:00;;;;;;;20.47;16.77;;;;;;;5.78;71.42;92307.88;5068350;28;20225;-83
2023/03/05 06:44:25;;;;;;;18.83;15.80;;;;;;;6.18;70.29;92328.66;5068937;28;20248;-81
2023/03/05 06:46:51;;;;;;;18.67;15.67;;;;;;;5.90;68.88;92339.53;5068796;28;20236;-85
2023/03/05 06:49:16;;;;;;;24.00;15.50;;;;;;;6.03;68.09;92333.84;5068652;28;20185;-84
2023/03/05 06:51:41;;;;;;;17.47;14.23;;;;;;;6.11;70.01;92338.53;5069276;28;20252;-76
2023/03/05 06:54:10;;;;;;;18.23;16.27;;;;;;;6.14;68.17;92343.97;5067264;28;20198;-81
2023/03/05 06:56:37;;;;;;;16.43;14.73;;;;;;;5.90;67.36;92318.81;5068231;28;20236;-83
2023/03/05 06:59:03;;;;;;;24.57;17.13;;;;;;;6.32;68.09;92319.34;5068385;28;20189;-88
2023/03/05 07:01:29;;;;;;;18.37;15.47;;;;;;;6.07;67.61;92309.75;5067632;28;20229;-88
2023/03/05 07:03:54;;;;;;;21.17;17.10;;;;;;;5.93;66.51;92310.53;5067832;28;20253;-81
2023/03/05 07:06:21;;;;;;;21.10;15.83;;;;;;;6.22;66.44;92335.69;5068454;28;20248;-80
2023/03/05 07:08:47;;;;;;;20.30;17.07;;;;;;;6.20;66.88;92332.56;5067331;28;20204;-83
2023/03/05 07:11:16;;;;;;;18.90;16.73;;;;;;;6.32;65.59;92330.50;5068000;28;21148;-75
2023/03/05 07:13:42;;;;;;;17.17;15.10;;;;;;;6.51;66.27;92307.41;5067067;28;20189;-77
2023/03/05 07:16:12;;;;;;;25.60;18.87;;;;;;;6.23;64.90;92347.59;5066776;28;20255;-77
2023/03/05 07:18:40;;;;;;;21.20;17.87;;;;;;;5.90;65.85;92319.56;5067548;28;20590;-77
2023/03/05 07:21:07;;;;;;;22.53;17.90;;;;;;;6.04;65.80;92327.63;5068163;28;20252;-76
2023/03/05 07:23:34;;;;;;;21.23;18.10;;;;;;;6.17;65.15;92334.88;5066936;28;20193;-78
2023/03/05 07:26:01;;;;;;;22.40;18.10;;;;;;;6.12;64.94;92347.84;5067257;28;20225;-78
2023/03/05 07:28:26;;;;;;;23.53;18.77;;;;;;;6.18;64.76;92349.41;5068297;28;20193;-77
2023/03/05 07:31:03;;;;;;;20.57;18.30;;;;;;;6.60;64.90;92343.97;5068516;28;20224;-75
2023/03/05 07:33:30;;;;;;;25.43;19.23;;;;;;;6.02;65.75;92332.28;5067742;28;20201;-70
2023/03/05 07:35:55;;;;;;;26.27;19.77;;;;;;;6.17;66.59;92343.44;5069014;28;20220;-74
2023/03/05 07:38:21;;;;;;;22.23;18.43;;;;;;;5.90;66.08;92339.53;5067684;28;20193;-73
2023/03/05 07:40:46;;;;;;;21.87;17.43;;;;;;;6.56;65.56;92343.72;5068821;28;20768;-76
2023/03/05 07:43:12;;;;;;;25.60;20.37;;;;;;;6.72;66.09;92345.28;5065911;28;20201;-76
2023/03/05 07:45:42;;;;;;;24.53;18.97;;;;;;;7.00;64.17;92334.34;5066263;28;20260;-71
2023/03/05 07:48:12;;;;;;;26.83;19.13;;;;;;;6.84;65.75;92353.56;5067316;28;20194;-77
2023/03/05 07:50:37;;;;;;;25.07;18.93;;;;;;;6.78;64.44;92335.66;5066134;28;21179;-75
2023/03/05 07:53:03;;;;;;;26.00;19.50;;;;;;;7.18;65.23;92349.31;5067328;28;20197;-76
2023/03/05 07:55:28;;;;;;;27.77;18.97;;;;;;;7.34;66.51;92343.06;5067291;28;20283;-74
2023/03/05 07:57:54;;;;;;;25.37;18.23;;;;;;;6.88;66.09;92351.22;5067325;28;20193;-73
2023/03/05 08:00:19;;;;;;;21.60;17.47;;;;;;;6.60;68.36;92347.34;5066482;28;20315;-76
2023/03/05 08:02:45;;;;;;;29.33;19.93;;;;;;;6.31;69.66;92343.72;5067458;28;20177;-79
2023/03/05 08:05:11;;;;;;;26.50;20.20;;;;;;;6.73;69.78;92354.59;5066658;28;20225;-74
2023/03/05 08:07:36;;;;;;;28.07;20.37;;;;;;;6.63;68.88;92359.78;5067640;28;20278;-73
2023/03/05 08:10:03;;;;;;;25.93;19.47;;;;;;;6.53;70.47;92342.44;5065996;28;20257;-74
2023/03/05 08:12:28;;;;;;;28.83;19.53;;;;;;;6.71;69.35;92353.31;5066578;28;20185;-74
2023/03/05 08:14:54;;;;;;;28.13;20.70;;;;;;;6.51;71.13;92352.28;5067049;28;20236;-73
2023/03/05 08:17:19;;;;;;;30.90;21.00;;;;;;;6.57;69.71;92342.66;5063891;28;21126;-73
2023/03/05 08:19:45;;;;;;;26.07;19.47;;;;;;;6.83;69.08;92339.03;5064988;28;20204;-74
2023/03/05 08:22:10;;;;;;;30.87;18.80;;;;;;;7.07;66.56;92341.81;5066415;28;20278;-74
2023/03/05 08:24:36;;;;;;;26.43;19.73;;;;;;;7.01;67.82;92348.84;5066547;28;20284;-86
2023/03/05 08:27:01;;;;;;;30.00;20.50;;;;;;;7.25;68.52;92344.66;5066790;28;20259;-76
2023/03/05 08:29:27;;;;;;;29.00;20.47;;;;;;;7.21;66.20;92343.59;5066793;28;20249;-78
2023/03/05 08:31:52;;;;;;;25.07;19.47;;;;;;;6.96;67.37;92354.03;5066054;28;20218;-73
2023/03/05 08:34:21;;;;;;;32.50;20.77;;;;;;;6.82;67.26;92347.06;5067787;28;20174;-73
2023/03/05 08:36:47;;;;;;;31.50;19.37;;;;;;;7.02;68.79;92347.03;5065978;28;20226;-72
2023/03/05 08:39:13;;;;;;;25.80;19.87;;;;;;;7.34;66.92;92337.88;5068040;28;20201;-69
2023/03/05 08:41:38;;;;;;;22.93;19.03;;;;;;;7.26;65.70;92346.19;5066118;28;20217;-69
2023/03/05 08:44:04;;;;;;;19.63;17.57;;;;;;;7.58;63.74;92346.59;5068026;28;20237;-69
2023/03/05 08:46:29;;;;;;;26.00;18.67;;;;;;;7.48;66.09;92341.44;5067049;28;20239;-70
2023/03/05 08:48:55;;;;;;;24.10;17.60;;;;;;;7.36;65.31;92316.81;5067329;28;20189;-70
2023/03/05 08:51:26;;;;;;;20.83;16.97;;;;;;;7.31;64.52;92348.78;5066709;28;20232;-72
2023/03/05 08:53:52;;;;;;;22.10;16.80;;;;;;;7.54;60.60;92339.59;5067383;28;20189;-74
2023/03/05 08:56:18;;;;;;;28.37;18.23;;;;;;;7.22;60.18;92329.56;5065772;28;20225;-74
2023/03/05 08:58:45;;;;;;;25.50;19.03;;;;;;;7.27;61.10;92277.63;5068310;28;20276;-78
2023/03/05 09:01:11;;;;;;;26.57;19.90;;;;;;;7.73;60.40;92336.16;5064526;28;20233;-75
2023/03/05 09:03:36;;;;;;;23.13;18.30;;;;;;;8.15;59.97;92330.44;5067149;28;20192;-74
2023/03/05 09:06:05;;;;;;;23.37;19.57;;;;;;;8.09;61.89;92329.69;5067833;28;20229;-75
2023/03/05 09:08:31;;;;;;;23.73;19.93;;;;;;;7.87;59.43;92307.75;5071310;28;20185;-74
2023/03/05 09:10:56;;;;;;;26.93;18.83;;;;;;;7.40;60.48;92334.22;5070082;28;20228;-73
2023/03/05 09:13:22;;;;;;;23.80;18.80;;;;;;;7.91;59.30;92332.94;5069742;28;20193;-88
2023/03/05 09:15:59;;;;;;;24.43;20.03;;;;;;;7.90;59.10;92333.19;5070553;28;20232;-72
2023/03/05 09:18:26;;;;;;;27.10;19.40;;;;;;;7.47;58.85;92321.69;5069614;28;20189;-75
2023/03/05 09:20:51;;;;;;;23.23;19.57;;;;;;;7.76;60.08;92316.63;5069403;28;20241;-76
2023/03/05 09:23:17;;;;;;;29.00;20.13;;;;;;;7.55;60.59;92312.56;5068062;28;20189;-78
2023/03/05 09:25:42;;;;;;;22.40;18.63;;;;;;;7.61;59.91;92304.50;5068138;28;20221;-75
2023/03/05 09:28:08;;;;;;;30.50;19.37;;;;;;;7.56;60.96;92319.34;5070364;28;20201;-78
2023/03/05 09:30:34;;;;;;;27.17;20.67;;;;;;;7.32;62.83;92313.19;5068228;28;20236;-76
2023/03/05 09:33:00;;;;;;;28.23;20.30;;;;;;;7.33;62.18;92318.13;5068271;28;20189;-75
2023/03/05 09:35:26;;;;;;;28.07;19.50;;;;;;;7.47;62.52;92293.13;5068994;28;20227;-75
2023/03/05 09:37:51;;;;;;;25.13;19.40;;;;;;;7.55;63.87;92318.56;5070500;28;20193;-77
2023/03/05 09:40:19;;;;;;;24.83;19.27;;;;;;;8.12;62.69;92313.53;5068917;28;20289;-79
2023/03/05 09:43:13;;;;;;;27.60;19.73;;;;;;;8.02;62.37;92290.22;5069430;28;20213;-76
2023/03/05 09:45:56;;;;;;;30.17;20.77;;;;;;;8.22;60.01;92304.91;5068313;28;20233;-77
2023/03/05 09:48:34;;;;;;;26.83;19.43;;;;;;;8.00;59.63;92274.13;5067955;28;20177;-73
2023/03/05 09:51:02;;;;;;;31.60;20.23;;;;;;;8.38;60.17;92295.19;5069934;28;20236;-76
2023/03/05 09:53:33;;;;;;;28.33;19.50;;;;;;;7.96;59.43;92291.31;5069258;28;20170;-79
2023/03/05 09:56:10;;;;;;;29.83;20.30;;;;;;;7.94;59.28;92290.81;5069793;28;20233;-78
2023/03/05 09:58:46;;;;;;;25.93;19.93;;;;;;;7.70;60.54;92279.53;5070448;28;20196;-76
2023/03/05 10:01:21;;;;;;;25.53;19.23;;;;;;;7.84;62.56;92274.50;5067523;28;20213;-75
2023/03/05 10:03:55;;;;;;;27.37;20.23;;;;;;;7.79;61.40;92285.69;5069677;28;21239;-75
2023/03/05 10:06:29;;;;;;;25.63;20.20;;;;;;;7.42;64.19;92269.03;5068343;28;20284;-75
2023/03/05 10:09:22;;;;;;;26.77;20.50;;;;;;;7.42;65.68;92276.81;5069286;28;20189;-74
2023/03/05 10:12:04;;;;;;;29.73;20.23;;;;;;;7.35;62.74;92251.13;5067161;28;20222;-75
2023/03/05 10:14:37;;;;;;;23.37;20.23;;;;;;;7.76;61.30;92260.25;5068847;28;20189;-75
2023/03/05 10:17:17;;;;;;;29.13;20.80;;;;;;;7.55;61.30;92264.00;5068198;28;20217;-83
2023/03/05 10:20:05;;;;;;;27.63;20.30;;;;;;;8.01;61.41;92267.91;5068533;28;20501;-85
2023/03/05 10:23:12;;;;;;;25.80;20.53;;;;;;;7.80;58.66;92260.47;5069075;28;20221;-78
2023/03/05 10:26:07;;;;;;;23.20;18.27;;;;;;;7.57;60.38;92256.72;5066966;28;20240;-82
2023/03/05 10:28:44;;;;;;;26.57;20.70;;;;;;;7.62;59.91;92250.72;5068138;28;20710;-76
2023/03/05 10:31:37;;;;;;;28.90;19.53;;;;;;;7.83;60.93;92236.56;5098177;28;20251;-84
2023/03/05 10:34:29;;;;;;;24.60;19.47;;;;;;;8.26;57.56;92253.94;5069072;28;20177;-89
2023/03/05 10:37:00;;;;;;;23.80;19.40;;;;;;;7.87;57.47;92247.97;5068221;28;20225;-88
2023/03/05 10:39:45;;;;;;;24.67;19.27;;;;;;;8.04;57.51;92240.56;5102037;28;20276;-94
2023/03/05 10:42:45;;;;;;;23.80;18.93;;;;;;;7.73;58.36;92240.00;5071659;28;20237;-86
2023/03/05 10:45:20;;;;;;;24.83;18.67;;;;;;;8.12;58.31;92217.34;5068694;28;20252;-91
2023/03/05 10:48:03;;;;;;;25.23;18.03;;;;;;;8.77;58.70;92234.22;5066485;28;20256;-82
2023/03/05 10:50:37;;;;;;;21.83;17.67;;;;;;;8.30;56.90;92204.75;5099658;28;20247;-82
2023/03/05 10:53:10;;;;;;;20.90;17.73;;;;;;;8.15;56.97;92221.25;5066487;28;20197;-81
2023/03/05 10:55:35;;;;;;;24.57;18.23;;;;;;;7.95;56.24;92198.78;5067700;28;20225;-85
2023/03/05 10:58:14;;;;;;;21.13;17.47;;;;;;;8.78;56.14;92214.19;5067008;28;20189;-82
2023/03/05 11:01:08;;;;;;;19.83;17.60;;;;;;;8.86;55.33;92208.34;5068238;28;20319;-82
2023/03/05 11:04:20;;;;;;;21.30;18.23;;;;;;;8.33;56.61;92215.38;5068837;28;20193;-83
2023/03/05 11:06:45;;;;;;;27.07;18.50;;;;;;;8.17;59.56;92201.72;5069258;28;20225;-82
2023/03/05 11:09:23;;;;;;;23.03;18.33;;;;;;;7.90;58.66;92201.44;5068202;28;20201;-92
2023/03/05 11:12:14;;;;;;;22.53;18.43;;;;;;;8.70;58.06;92188.75;5066909;28;20236;-82
2023/03/05 11:15:01;;;;;;;23.60;18.37;;;;;;;8.19;59.15;92191.81;5062946;28;20201;-86
2023/03/05 11:17:31;;;;;;;24.43;18.73;;;;;;;8.49;56.58;92177.00;5066741;28;20213;-82
2023/03/05 11:20:25;;;;;;;20.00;17.27;;;;;;;8.68;56.36;92188.25;5068843;28;20971;-85
2023/03/05 11:23:04;;;;;;;22.67;17.53;;;;;;;8.45;57.64;92183.81;5067465;28;20197;-86
2023/03/05 11:25:32;;;;;;;23.03;18.17;;;;;;;8.52;57.33;92177.25;5068386;28;20225;-85
2023/03/05 11:27:59;;;;;;;23.30;19.67;;;;;;;8.55;55.70;92174.09;5067677;28;20232;-84
2023/03/05 11:30:35;;;;;;;22.27;17.80;;;;;;;8.74;57.70;92181.94;5065680;28;20221;-81